createdAt,value
2022-11-14T00:00:38.216Z,17.52
2022-11-14T00:03:08.636Z,19.02
2022-11-14T00:05:43.016Z,19.00
2022-11-14T00:08:16.841Z,18.13
2022-11-14T00:10:47.519Z,17.58
2022-11-14T00:13:15.984Z,19.10
2022-11-14T00:15:44.227Z,19.73
2022-11-14T00:18:12.138Z,18.70
2022-11-14T00:20:41.615Z,20.42
2022-11-14T00:23:09.465Z,20.40
2022-11-14T00:25:37.341Z,19.65
2022-11-14T00:28:05.236Z,23.33
2022-11-14T00:30:33.109Z,23.38
2022-11-14T00:33:00.957Z,23.65
2022-11-14T00:35:28.837Z,24.58
2022-11-14T00:37:58.076Z,23.83
2022-11-14T00:40:25.991Z,24.42
2022-11-14T00:42:53.837Z,23.70
2022-11-14T00:45:21.799Z,23.35
2022-11-14T00:47:49.667Z,23.08
2022-11-14T00:50:18.212Z,22.70
2022-11-14T00:52:46.049Z,21.23
2022-11-14T00:55:15.328Z,21.33
2022-11-14T00:57:43.157Z,20.98
2022-11-14T01:00:14.368Z,21.73
2022-11-14T01:02:42.233Z,21.63
2022-11-14T01:05:10.571Z,20.38
2022-11-14T01:07:38.476Z,21.15
2022-11-14T01:10:07.697Z,20.90
2022-11-14T01:12:36.928Z,20.63
2022-11-14T01:15:05.907Z,20.13
2022-11-14T01:17:33.780Z,21.00
2022-11-14T01:20:01.612Z,21.35
2022-11-14T01:22:31.028Z,22.45
2022-11-14T01:24:59.583Z,20.25
2022-11-14T01:27:27.697Z,20.27
2022-11-14T01:29:56.982Z,22.00
2022-11-14T01:32:24.831Z,20.83
2022-11-14T01:34:52.742Z,20.27
2022-11-14T01:37:20.586Z,20.70
2022-11-14T01:39:48.555Z,19.98
2022-11-14T01:42:21.958Z,21.10
2022-11-14T01:44:54.231Z,20.48
2022-11-14T01:47:27.257Z,19.60
2022-11-14T01:49:57.191Z,19.35
2022-11-14T01:52:29.078Z,19.83
2022-11-14T01:55:00.932Z,19.65
2022-11-14T01:57:38.367Z,19.98
2022-11-14T02:00:12.984Z,18.63
2022-11-14T02:02:44.631Z,19.50
2022-11-14T02:05:16.539Z,20.88
2022-11-14T02:07:44.393Z,19.48
2022-11-14T02:10:17.848Z,19.40
2022-11-14T02:12:46.930Z,21.20
2022-11-14T02:15:15.955Z,18.20
2022-11-14T02:17:45.716Z,21.50
2022-11-14T02:20:22.749Z,18.80
2022-11-14T02:22:50.619Z,19.75
2022-11-14T02:25:19.949Z,18.38
2022-11-14T02:27:48.041Z,18.40
2022-11-14T02:30:18.855Z,18.90
2022-11-14T02:35:36.370Z,19.45
2022-11-14T02:38:04.320Z,19.10
2022-11-14T02:40:32.257Z,19.70
2022-11-14T02:43:00.249Z,19.95
2022-11-14T02:45:28.432Z,20.63
2022-11-14T02:47:56.338Z,19.77
2022-11-14T02:50:24.376Z,21.08
2022-11-14T02:52:54.322Z,18.88
2022-11-14T02:55:22.296Z,19.30
2022-11-14T02:57:50.211Z,17.40
2022-11-14T03:00:19.442Z,18.40
2022-11-14T03:02:47.332Z,17.95
2022-11-14T03:05:15.407Z,18.55
2022-11-14T03:07:43.259Z,19.13
2022-11-14T03:10:14.042Z,18.48
2022-11-14T03:12:41.941Z,17.15
2022-11-14T03:15:11.398Z,18.25
2022-11-14T03:17:39.528Z,16.90
2022-11-14T03:20:08.616Z,18.38
2022-11-14T03:22:36.458Z,16.15
2022-11-14T03:25:04.892Z,17.38
2022-11-14T03:27:34.158Z,16.75
2022-11-14T03:30:02.214Z,17.98
2022-11-14T03:32:30.244Z,18.75
2022-11-14T03:34:58.937Z,19.27
2022-11-14T03:37:26.843Z,19.25
2022-11-14T03:39:54.996Z,17.75
2022-11-14T03:42:22.804Z,18.08
2022-11-14T03:44:52.160Z,18.13
2022-11-14T03:47:20.149Z,17.48
2022-11-14T03:49:48.057Z,17.50
2022-11-14T03:52:15.909Z,17.10
2022-11-14T03:54:44.111Z,16.60
2022-11-14T03:57:12.034Z,17.73
2022-11-14T03:59:40.035Z,17.08
2022-11-14T04:02:09.336Z,17.85
2022-11-14T04:04:37.237Z,17.45
2022-11-14T04:07:05.106Z,19.00
2022-11-14T04:09:33.022Z,18.00
2022-11-14T04:12:00.829Z,19.15
2022-11-14T04:14:28.895Z,17.65
2022-11-14T04:16:56.732Z,19.40
2022-11-14T04:19:26.040Z,18.17
2022-11-14T04:21:53.883Z,17.83
2022-11-14T04:24:21.766Z,18.33
2022-11-14T04:26:49.728Z,17.98
2022-11-14T04:29:17.665Z,18.05
2022-11-14T04:31:45.669Z,18.27
2022-11-14T04:34:13.529Z,19.30
2022-11-14T04:36:43.228Z,19.83
2022-11-14T04:39:11.281Z,19.48
2022-11-14T04:41:39.189Z,18.92
2022-11-14T04:44:07.357Z,19.98
2022-11-14T04:46:35.217Z,21.98
2022-11-14T04:49:03.317Z,21.00
2022-11-14T04:51:31.221Z,21.95
2022-11-14T04:54:00.524Z,20.80
2022-11-14T04:56:29.303Z,22.92
2022-11-14T04:58:57.221Z,23.92
2022-11-14T05:01:25.190Z,22.90
2022-11-14T05:03:53.559Z,25.33
2022-11-14T05:06:21.661Z,19.50
2022-11-14T05:08:49.611Z,18.27
2022-11-14T05:11:23.086Z,19.95
2022-11-14T05:13:53.552Z,19.38
2022-11-14T05:16:21.485Z,21.05
2022-11-14T05:18:49.363Z,22.77
2022-11-14T05:21:17.274Z,21.20
2022-11-14T05:23:45.306Z,21.30
2022-11-14T05:26:15.859Z,22.33
2022-11-14T05:28:45.433Z,22.83
2022-11-14T05:31:17.898Z,22.80
2022-11-14T05:33:46.695Z,23.75
2022-11-14T05:36:16.318Z,23.25
2022-11-14T05:38:44.674Z,24.27
2022-11-14T05:41:15.140Z,23.27
2022-11-14T05:43:45.153Z,23.15
2022-11-14T05:46:14.841Z,23.30
2022-11-14T05:48:43.303Z,22.75
2022-11-14T05:51:13.558Z,25.48
2022-11-14T05:53:41.923Z,24.45
2022-11-14T05:56:12.569Z,24.23
2022-11-14T05:58:40.909Z,23.00
2022-11-14T06:01:11.447Z,23.45
2022-11-14T06:03:40.967Z,23.30
2022-11-14T06:06:11.312Z,23.48
2022-11-14T06:08:39.729Z,23.27
2022-11-14T06:11:10.121Z,24.60
2022-11-14T06:13:38.669Z,22.48
2022-11-14T06:16:08.867Z,24.63
2022-11-14T06:18:38.875Z,22.48
2022-11-14T06:21:08.461Z,22.60
2022-11-14T06:23:36.341Z,23.40
2022-11-14T06:26:06.241Z,24.02
2022-11-14T06:28:34.531Z,24.02
2022-11-14T06:31:03.848Z,24.48
2022-11-14T06:33:35.809Z,26.85
2022-11-14T06:36:07.009Z,26.52
2022-11-14T06:38:37.358Z,26.42
2022-11-14T06:41:06.447Z,27.20
2022-11-14T06:43:34.920Z,28.38
2022-11-14T06:46:03.692Z,28.27
2022-11-14T06:48:32.452Z,26.40
2022-11-14T06:51:02.125Z,25.70
2022-11-14T06:53:33.077Z,26.65
2022-11-14T06:56:03.180Z,25.88
2022-11-14T06:58:32.741Z,26.65
2022-11-14T07:01:05.026Z,26.17
2022-11-14T07:03:33.299Z,26.27
2022-11-14T07:06:01.754Z,24.83
2022-11-14T07:08:31.524Z,25.58
2022-11-14T07:11:03.808Z,24.10
2022-11-14T07:13:32.629Z,25.13
2022-11-14T07:16:00.898Z,26.02
2022-11-14T07:18:30.843Z,26.65
2022-11-14T07:21:00.490Z,25.30
2022-11-14T07:23:29.162Z,24.33
2022-11-14T07:26:02.548Z,24.00
2022-11-14T07:28:30.792Z,24.90
2022-11-14T07:30:58.850Z,22.58
2022-11-14T07:33:26.788Z,22.08
2022-11-14T07:35:55.173Z,23.05
2022-11-14T07:38:23.071Z,21.55
2022-11-14T07:40:59.319Z,21.73
2022-11-14T07:43:29.879Z,21.73
2022-11-14T07:46:01.245Z,21.58
2022-11-14T07:48:29.699Z,21.33
2022-11-14T07:50:59.920Z,22.23
2022-11-14T07:53:28.230Z,22.15
2022-11-14T07:55:56.096Z,21.33
2022-11-14T07:58:24.038Z,19.00
2022-11-14T08:00:53.272Z,19.92
2022-11-14T08:03:21.226Z,19.67
2022-11-14T08:05:49.151Z,18.77
2022-11-14T08:08:16.998Z,17.00
2022-11-14T08:10:44.820Z,16.67
2022-11-14T08:16:10.729Z,16.83
2022-11-14T08:18:40.530Z,17.15
2022-11-14T08:21:08.846Z,17.70
2022-11-14T08:23:36.830Z,16.08
2022-11-14T08:26:04.855Z,16.92
2022-11-14T08:28:33.100Z,15.07
2022-11-14T08:31:03.245Z,16.83
2022-11-14T08:33:31.830Z,15.77
2022-11-14T08:36:02.056Z,17.05
2022-11-14T08:38:30.313Z,16.15
2022-11-14T08:40:59.710Z,15.77
2022-11-14T08:43:27.612Z,16.23
2022-11-14T08:46:01.607Z,15.70
2022-11-14T08:48:32.310Z,15.90
2022-11-14T08:51:04.271Z,17.15
2022-11-14T08:53:32.473Z,16.17
2022-11-14T08:56:00.412Z,15.48
2022-11-14T08:58:31.180Z,17.45
2022-11-14T09:01:03.320Z,14.80
2022-11-14T09:03:32.628Z,15.63
2022-11-14T09:06:01.249Z,15.50
2022-11-14T09:08:29.980Z,15.13
2022-11-14T09:11:05.349Z,15.48
2022-11-14T09:13:34.238Z,16.25
2022-11-14T09:16:02.330Z,17.63
2022-11-14T09:18:32.847Z,17.77
2022-11-14T09:21:01.981Z,17.70
2022-11-14T09:23:30.115Z,17.88
2022-11-14T09:25:58.489Z,16.65
2022-11-14T09:28:26.380Z,17.60
2022-11-14T09:30:54.279Z,17.08
2022-11-14T09:33:22.092Z,16.55
2022-11-14T09:35:57.690Z,17.05
2022-11-14T09:38:25.605Z,15.05
2022-11-14T09:41:05.531Z,14.63
2022-11-14T09:43:48.742Z,15.88
2022-11-14T09:46:22.907Z,14.27
2022-11-14T09:48:53.149Z,15.88
2022-11-14T09:51:24.619Z,15.63
2022-11-14T09:53:57.371Z,14.70
2022-11-14T09:56:27.357Z,15.48
2022-11-14T09:58:56.811Z,15.20
2022-11-14T10:01:38.118Z,16.40
2022-11-14T10:04:18.328Z,17.17
2022-11-14T10:06:58.418Z,16.08
2022-11-14T10:09:51.199Z,16.65
2022-11-14T10:12:24.655Z,17.98
2022-11-14T10:15:05.666Z,18.48
2022-11-14T10:17:50.471Z,16.70
2022-11-14T10:20:25.201Z,17.48
2022-11-14T10:23:07.296Z,14.30
2022-11-14T10:25:44.881Z,14.05
2022-11-14T10:28:31.141Z,13.40
2022-11-14T10:31:09.604Z,12.60
2022-11-14T10:33:49.412Z,11.93
2022-11-14T10:36:32.250Z,9.75
2022-11-14T10:39:07.294Z,9.20
2022-11-14T10:41:56.312Z,9.35
2022-11-14T10:44:31.829Z,10.52
2022-11-14T10:47:04.902Z,10.07
2022-11-14T10:49:36.964Z,9.20
2022-11-14T10:52:08.649Z,9.18
2022-11-14T10:54:43.000Z,9.35
2022-11-14T10:57:17.049Z,9.88
2022-11-14T10:59:45.321Z,9.30
2022-11-14T11:02:13.411Z,8.45
2022-11-14T11:04:42.388Z,9.07
2022-11-14T11:07:48.898Z,8.88
2022-11-14T11:10:42.350Z,9.10
2022-11-14T11:13:15.624Z,9.30
2022-11-14T11:15:44.061Z,9.93
2022-11-14T11:18:28.860Z,9.77
2022-11-14T11:21:05.136Z,10.43
2022-11-14T11:23:33.107Z,10.48
2022-11-14T11:26:05.873Z,9.20
2022-11-14T11:28:35.147Z,9.70
2022-11-14T11:31:06.246Z,9.40
2022-11-14T11:33:35.217Z,8.55
2022-11-14T11:36:06.368Z,9.20
2022-11-14T11:38:35.237Z,9.88
2022-11-14T11:41:33.297Z,10.20
2022-11-14T11:44:13.746Z,10.05
2022-11-14T11:46:48.020Z,9.82
2022-11-14T11:49:19.604Z,10.30
2022-11-14T11:51:48.521Z,10.68
2022-11-14T11:54:19.545Z,10.60
2022-11-14T11:56:53.399Z,10.02
2022-11-14T11:59:29.982Z,10.02
2022-11-14T12:01:57.961Z,11.02
2022-11-14T12:04:26.172Z,10.60
2022-11-14T12:07:03.911Z,10.85
2022-11-14T12:10:08.911Z,11.15
2022-11-14T12:12:40.260Z,10.68
2022-11-14T12:15:19.317Z,9.57
2022-11-14T12:18:05.706Z,10.68
2022-11-14T12:20:57.986Z,10.90
2022-11-14T12:24:07.658Z,10.32
2022-11-14T12:26:52.312Z,10.10
2022-11-14T12:29:40.437Z,10.48
2022-11-14T12:32:13.652Z,9.50
2022-11-14T12:34:45.562Z,10.68
2022-11-14T12:37:19.690Z,10.40
2022-11-14T12:39:58.336Z,10.40
2022-11-14T12:42:26.412Z,9.73
2022-11-14T12:44:55.850Z,10.82
2022-11-14T12:47:25.978Z,10.23
2022-11-14T12:50:36.394Z,9.45
2022-11-14T12:53:04.496Z,10.38
2022-11-14T12:56:19.310Z,9.82
2022-11-14T12:59:05.665Z,11.10
2022-11-14T13:01:49.146Z,9.73
2022-11-14T13:04:25.855Z,10.07
2022-11-14T13:07:08.288Z,9.85
2022-11-14T13:09:54.418Z,9.38
2022-11-14T13:12:58.196Z,9.45
2022-11-14T13:15:49.738Z,9.65
2022-11-14T13:18:41.285Z,10.13
2022-11-14T13:21:44.741Z,9.23
2022-11-14T13:24:14.447Z,9.68
2022-11-14T13:26:47.578Z,8.73
2022-11-14T13:29:52.013Z,8.45
2022-11-14T13:33:07.754Z,7.88
2022-11-14T13:35:48.480Z,7.43
2022-11-14T13:38:50.664Z,7.57
2022-11-14T13:41:51.077Z,6.95
2022-11-14T13:45:06.107Z,7.57
2022-11-14T13:47:52.439Z,7.38
2022-11-14T13:50:27.048Z,7.25
2022-11-14T13:52:56.702Z,7.13
2022-11-14T13:55:32.605Z,6.75
2022-11-14T13:58:15.824Z,7.90
2022-11-14T14:00:58.784Z,8.25
2022-11-14T14:03:39.789Z,7.47
2022-11-14T14:06:32.017Z,7.88
2022-11-14T14:09:13.693Z,7.38
2022-11-14T14:11:56.324Z,7.75
2022-11-14T14:14:38.573Z,7.55
2022-11-14T14:17:14.063Z,7.82
2022-11-14T14:19:53.656Z,8.13
2022-11-14T14:22:31.024Z,7.60
2022-11-14T14:25:07.853Z,8.30
2022-11-14T14:27:42.331Z,8.38
2022-11-14T14:30:12.873Z,7.72
2022-11-14T14:32:41.252Z,7.63
2022-11-14T14:35:23.843Z,8.13
2022-11-14T14:37:53.567Z,7.97
2022-11-14T14:40:27.631Z,8.63
2022-11-14T14:42:57.405Z,8.27
2022-11-14T14:45:27.987Z,8.57
2022-11-14T14:48:02.341Z,8.02
2022-11-14T14:50:41.903Z,8.27
2022-11-14T14:53:21.767Z,8.15
2022-11-14T14:55:56.861Z,8.13
2022-11-14T14:58:27.235Z,9.10
2022-11-14T15:00:59.338Z,8.27
2022-11-14T15:03:36.421Z,8.82
2022-11-14T15:06:06.793Z,8.00
2022-11-14T15:08:39.769Z,8.88
2022-11-14T15:11:09.393Z,8.50
2022-11-14T15:13:38.776Z,8.68
2022-11-14T15:16:08.353Z,8.25
2022-11-14T15:18:36.664Z,9.27
2022-11-14T15:21:09.213Z,8.55
2022-11-14T15:23:38.982Z,8.27
2022-11-14T15:26:14.624Z,7.90
2022-11-14T15:28:42.494Z,8.90
2022-11-14T15:31:19.694Z,9.60
2022-11-14T15:34:01.458Z,9.13
2022-11-14T15:36:29.347Z,9.13
2022-11-14T15:39:02.228Z,8.98
2022-11-14T15:41:32.507Z,10.18
2022-11-14T15:44:03.810Z,9.18
2022-11-14T15:46:43.670Z,10.02
2022-11-14T15:49:21.042Z,10.73
2022-11-14T15:51:51.771Z,10.38
2022-11-14T15:54:23.543Z,9.55
2022-11-14T15:56:54.081Z,9.48
2022-11-14T15:59:23.070Z,9.60
2022-11-14T16:01:54.095Z,9.35
2022-11-14T16:04:25.209Z,10.52
2022-11-14T16:06:53.366Z,10.30
2022-11-14T16:09:23.001Z,10.15
2022-11-14T16:11:52.398Z,10.18
2022-11-14T16:14:20.323Z,10.90
2022-11-14T16:16:48.238Z,12.32
2022-11-14T16:19:17.936Z,12.13
2022-11-14T16:21:45.895Z,12.52
2022-11-14T16:24:18.160Z,12.13
2022-11-14T16:26:46.021Z,13.10
2022-11-14T16:29:15.564Z,12.90
2022-11-14T16:31:43.634Z,13.10
2022-11-14T16:34:17.772Z,12.85
2022-11-14T16:36:46.373Z,13.18
2022-11-14T16:39:14.458Z,12.43
2022-11-14T16:41:42.387Z,11.70
2022-11-14T16:44:17.168Z,12.07
2022-11-14T16:46:45.570Z,11.65
2022-11-14T16:49:15.343Z,11.27
2022-11-14T16:51:48.410Z,12.20
2022-11-14T16:54:17.537Z,11.07
2022-11-14T16:56:45.489Z,9.98
2022-11-14T16:59:13.821Z,9.25
2022-11-14T17:01:43.777Z,10.45
2022-11-14T17:04:11.756Z,9.43
2022-11-14T17:06:39.766Z,9.77
2022-11-14T17:09:08.020Z,9.52
2022-11-14T17:11:36.477Z,10.25
2022-11-14T17:14:04.385Z,9.95
2022-11-14T17:16:32.223Z,9.75
2022-11-14T17:19:01.473Z,10.65
